sensor_id;sensor_type;location;lat;lon;timestamp;P1;durP1;ratioP1;P2;durP2;ratioP2
54871;SDS011;43914;57.680;11.982;2023-04-24T00:00:02;27.30;;;17.90;;
54871;SDS011;43914;57.680;11.982;2023-04-24T00:02:34;24.30;;;15.30;;
54871;SDS011;43914;57.680;11.982;2023-04-24T00:04:59;26.90;;;16.70;;
54871;SDS011;43914;57.680;11.982;2023-04-24T00:07:28;28.10;;;17.90;;
54871;SDS011;43914;57.680;11.982;2023-04-24T00:09:54;26.20;;;17.00;;
54871;SDS011;43914;57.680;11.982;2023-04-24T00:12:20;28.20;;;17.50;;
54871;SDS011;43914;57.680;11.982;2023-04-24T00:14:45;28.90;;;18.20;;
54871;SDS011;43914;57.680;11.982;2023-04-24T00:17:11;26.90;;;17.20;;
54871;SDS011;43914;57.680;11.982;2023-04-24T00:19:36;28.60;;;18.10;;
54871;SDS011;43914;57.680;11.982;2023-04-24T00:22:02;23.90;;;15.30;;
54871;SDS011;43914;57.680;11.982;2023-04-24T00:24:27;32.00;;;18.90;;
54871;SDS011;43914;57.680;11.982;2023-04-24T00:26:53;25.40;;;16.10;;
54871;SDS011;43914;57.680;11.982;2023-04-24T00:29:18;23.60;;;15.20;;
54871;SDS011;43914;57.680;11.982;2023-04-24T00:31:44;25.60;;;16.90;;
54871;SDS011;43914;57.680;11.982;2023-04-24T00:34:09;27.20;;;17.30;;
54871;SDS011;43914;57.680;11.982;2023-04-24T00:36:36;24.00;;;15.10;;
54871;SDS011;43914;57.680;11.982;2023-04-24T00:39:02;26.50;;;17.00;;
54871;SDS011;43914;57.680;11.982;2023-04-24T00:41:28;34.00;;;19.20;;
54871;SDS011;43914;57.680;11.982;2023-04-24T00:43:53;30.00;;;19.00;;
54871;SDS011;43914;57.680;11.982;2023-04-24T00:46:19;28.50;;;17.90;;
54871;SDS011;43914;57.680;11.982;2023-04-24T00:48:46;33.40;;;20.00;;
54871;SDS011;43914;57.680;11.982;2023-04-24T00:51:11;28.80;;;18.80;;
54871;SDS011;43914;57.680;11.982;2023-04-24T00:53:37;28.60;;;17.90;;
54871;SDS011;43914;57.680;11.982;2023-04-24T00:56:02;31.30;;;19.30;;
54871;SDS011;43914;57.680;11.982;2023-04-24T00:58:30;25.50;;;16.00;;
54871;SDS011;43914;57.680;11.982;2023-04-24T01:00:57;29.50;;;17.50;;
54871;SDS011;43914;57.680;11.982;2023-04-24T01:03:28;27.80;;;16.60;;
54871;SDS011;43914;57.680;11.982;2023-04-24T01:05:55;26.70;;;17.00;;
54871;SDS011;43914;57.680;11.982;2023-04-24T01:08:21;25.00;;;17.00;;
54871;SDS011;43914;57.680;11.982;2023-04-24T01:10:52;29.70;;;17.80;;
54871;SDS011;43914;57.680;11.982;2023-04-24T01:13:18;30.50;;;19.00;;
54871;SDS011;43914;57.680;11.982;2023-04-24T01:15:46;27.40;;;17.10;;
54871;SDS011;43914;57.680;11.982;2023-04-24T01:18:12;29.60;;;17.90;;
54871;SDS011;43914;57.680;11.982;2023-04-24T01:20:41;27.70;;;18.00;;
54871;SDS011;43914;57.680;11.982;2023-04-24T01:23:09;23.60;;;15.20;;
54871;SDS011;43914;57.680;11.982;2023-04-24T01:25:35;28.40;;;18.20;;
54871;SDS011;43914;57.680;11.982;2023-04-24T01:28:01;29.40;;;18.60;;
54871;SDS011;43914;57.680;11.982;2023-04-24T01:30:27;25.90;;;16.70;;
54871;SDS011;43914;57.680;11.982;2023-04-24T01:32:53;26.90;;;16.30;;
54871;SDS011;43914;57.680;11.982;2023-04-24T01:35:20;27.60;;;17.00;;
54871;SDS011;43914;57.680;11.982;2023-04-24T01:37:46;25.80;;;16.00;;
54871;SDS011;43914;57.680;11.982;2023-04-24T01:40:12;22.70;;;14.10;;
54871;SDS011;43914;57.680;11.982;2023-04-24T01:42:37;25.70;;;17.40;;
54871;SDS011;43914;57.680;11.982;2023-04-24T01:45:03;26.70;;;17.00;;
54871;SDS011;43914;57.680;11.982;2023-04-24T01:47:30;26.50;;;16.40;;
54871;SDS011;43914;57.680;11.982;2023-04-24T01:49:57;25.10;;;14.70;;
54871;SDS011;43914;57.680;11.982;2023-04-24T01:52:23;32.70;;;18.80;;
54871;SDS011;43914;57.680;11.982;2023-04-24T01:54:49;24.80;;;15.50;;
54871;SDS011;43914;57.680;11.982;2023-04-24T01:57:15;26.90;;;18.00;;
54871;SDS011;43914;57.680;11.982;2023-04-24T01:59:42;29.40;;;17.90;;
54871;SDS011;43914;57.680;11.982;2023-04-24T02:02:07;24.70;;;15.60;;
54871;SDS011;43914;57.680;11.982;2023-04-24T02:04:33;26.00;;;17.50;;
54871;SDS011;43914;57.680;11.982;2023-04-24T02:06:58;27.80;;;17.40;;
54871;SDS011;43914;57.680;11.982;2023-04-24T02:09:24;26.90;;;17.60;;
54871;SDS011;43914;57.680;11.982;2023-04-24T02:11:50;24.90;;;15.40;;
54871;SDS011;43914;57.680;11.982;2023-04-24T02:14:15;23.70;;;15.90;;
54871;SDS011;43914;57.680;11.982;2023-04-24T02:16:41;25.70;;;16.30;;
54871;SDS011;43914;57.680;11.982;2023-04-24T02:19:06;26.90;;;15.90;;
54871;SDS011;43914;57.680;11.982;2023-04-24T02:21:32;25.70;;;15.40;;
54871;SDS011;43914;57.680;11.982;2023-04-24T02:23:58;25.50;;;17.00;;
54871;SDS011;43914;57.680;11.982;2023-04-24T02:26:24;28.20;;;18.40;;
54871;SDS011;43914;57.680;11.982;2023-04-24T02:28:49;31.10;;;17.50;;
54871;SDS011;43914;57.680;11.982;2023-04-24T02:31:15;25.90;;;15.70;;
54871;SDS011;43914;57.680;11.982;2023-04-24T02:33:40;24.80;;;16.10;;
54871;SDS011;43914;57.680;11.982;2023-04-24T02:36:06;23.80;;;15.20;;
54871;SDS011;43914;57.680;11.982;2023-04-24T02:38:32;23.50;;;14.40;;
54871;SDS011;43914;57.680;11.982;2023-04-24T02:40:58;25.30;;;16.00;;
54871;SDS011;43914;57.680;11.982;2023-04-24T02:43:24;29.00;;;16.40;;
54871;SDS011;43914;57.680;11.982;2023-04-24T02:45:49;22.70;;;13.90;;
54871;SDS011;43914;57.680;11.982;2023-04-24T02:48:14;26.70;;;17.20;;
54871;SDS011;43914;57.680;11.982;2023-04-24T02:50:40;25.60;;;16.40;;
54871;SDS011;43914;57.680;11.982;2023-04-24T02:53:06;26.90;;;16.40;;
54871;SDS011;43914;57.680;11.982;2023-04-24T02:55:31;22.40;;;13.80;;
54871;SDS011;43914;57.680;11.982;2023-04-24T02:57:57;24.30;;;15.20;;
54871;SDS011;43914;57.680;11.982;2023-04-24T03:00:23;25.20;;;15.90;;
54871;SDS011;43914;57.680;11.982;2023-04-24T03:02:48;25.50;;;16.30;;
54871;SDS011;43914;57.680;11.982;2023-04-24T03:05:15;23.30;;;14.90;;
54871;SDS011;43914;57.680;11.982;2023-04-24T03:07:40;26.40;;;16.00;;
54871;SDS011;43914;57.680;11.982;2023-04-24T03:10:06;24.70;;;15.80;;
54871;SDS011;43914;57.680;11.982;2023-04-24T03:12:32;23.50;;;16.10;;
54871;SDS011;43914;57.680;11.982;2023-04-24T03:14:57;25.40;;;15.90;;
54871;SDS011;43914;57.680;11.982;2023-04-24T03:17:23;26.90;;;16.20;;
54871;SDS011;43914;57.680;11.982;2023-04-24T03:19:48;24.90;;;15.60;;
54871;SDS011;43914;57.680;11.982;2023-04-24T03:22:14;23.70;;;14.90;;
54871;SDS011;43914;57.680;11.982;2023-04-24T03:24:39;26.20;;;15.70;;
54871;SDS011;43914;57.680;11.982;2023-04-24T03:27:05;24.70;;;14.30;;
54871;SDS011;43914;57.680;11.982;2023-04-24T03:29:30;25.40;;;15.10;;
54871;SDS011;43914;57.680;11.982;2023-04-24T03:31:56;25.30;;;16.00;;
54871;SDS011;43914;57.680;11.982;2023-04-24T03:34:21;19.80;;;12.20;;
54871;SDS011;43914;57.680;11.982;2023-04-24T03:36:47;22.90;;;13.90;;
54871;SDS011;43914;57.680;11.982;2023-04-24T03:39:12;22.80;;;13.60;;
54871;SDS011;43914;57.680;11.982;2023-04-24T03:41:38;24.60;;;14.40;;
54871;SDS011;43914;57.680;11.982;2023-04-24T03:44:04;21.60;;;14.50;;
54871;SDS011;43914;57.680;11.982;2023-04-24T03:46:29;22.60;;;15.00;;
54871;SDS011;43914;57.680;11.982;2023-04-24T03:48:55;19.30;;;12.60;;
54871;SDS011;43914;57.680;11.982;2023-04-24T03:51:20;22.30;;;13.60;;
54871;SDS011;43914;57.680;11.982;2023-04-24T03:53:46;22.30;;;14.30;;
54871;SDS011;43914;57.680;11.982;2023-04-24T03:56:12;23.50;;;14.30;;
54871;SDS011;43914;57.680;11.982;2023-04-24T03:58:37;24.10;;;15.00;;
54871;SDS011;43914;57.680;11.982;2023-04-24T04:01:03;22.00;;;14.20;;
54871;SDS011;43914;57.680;11.982;2023-04-24T04:03:28;21.60;;;12.40;;
54871;SDS011;43914;57.680;11.982;2023-04-24T04:05:54;20.00;;;12.20;;
54871;SDS011;43914;57.680;11.982;2023-04-24T04:08:20;19.70;;;12.70;;
54871;SDS011;43914;57.680;11.982;2023-04-24T04:10:45;22.10;;;13.30;;
54871;SDS011;43914;57.680;11.982;2023-04-24T04:13:10;24.20;;;14.70;;
54871;SDS011;43914;57.680;11.982;2023-04-24T04:15:36;24.20;;;14.10;;
54871;SDS011;43914;57.680;11.982;2023-04-24T04:18:01;20.50;;;13.00;;
54871;SDS011;43914;57.680;11.982;2023-04-24T04:20:27;24.40;;;13.80;;
54871;SDS011;43914;57.680;11.982;2023-04-24T04:22:53;24.00;;;14.30;;
54871;SDS011;43914;57.680;11.982;2023-04-24T04:25:18;22.20;;;13.50;;
54871;SDS011;43914;57.680;11.982;2023-04-24T04:27:45;19.40;;;12.00;;
54871;SDS011;43914;57.680;11.982;2023-04-24T04:30:12;20.40;;;13.00;;
54871;SDS011;43914;57.680;11.982;2023-04-24T04:32:39;17.90;;;10.90;;
54871;SDS011;43914;57.680;11.982;2023-04-24T04:35:04;20.90;;;13.30;;
54871;SDS011;43914;57.680;11.982;2023-04-24T04:37:30;21.50;;;13.90;;
54871;SDS011;43914;57.680;11.982;2023-04-24T04:39:59;18.80;;;11.50;;
54871;SDS011;43914;57.680;11.982;2023-04-24T04:42:25;19.20;;;12.90;;
54871;SDS011;43914;57.680;11.982;2023-04-24T04:44:52;20.20;;;13.10;;
54871;SDS011;43914;57.680;11.982;2023-04-24T04:47:18;18.50;;;12.00;;
54871;SDS011;43914;57.680;11.982;2023-04-24T04:49:49;22.10;;;13.30;;
54871;SDS011;43914;57.680;11.982;2023-04-24T04:52:18;19.70;;;12.40;;
54871;SDS011;43914;57.680;11.982;2023-04-24T04:54:44;19.40;;;13.00;;
54871;SDS011;43914;57.680;11.982;2023-04-24T04:57:11;19.60;;;12.90;;
54871;SDS011;43914;57.680;11.982;2023-04-24T04:59:37;20.00;;;12.10;;
54871;SDS011;43914;57.680;11.982;2023-04-24T05:02:02;21.10;;;12.80;;
54871;SDS011;43914;57.680;11.982;2023-04-24T05:04:28;20.10;;;11.10;;
54871;SDS011;43914;57.680;11.982;2023-04-24T05:06:53;21.60;;;13.10;;
54871;SDS011;43914;57.680;11.982;2023-04-24T05:09:19;21.30;;;13.20;;
54871;SDS011;43914;57.680;11.982;2023-04-24T05:11:44;20.40;;;11.70;;
54871;SDS011;43914;57.680;11.982;2023-04-24T05:14:10;18.90;;;11.60;;
54871;SDS011;43914;57.680;11.982;2023-04-24T05:16:37;18.50;;;12.10;;
54871;SDS011;43914;57.680;11.982;2023-04-24T05:19:03;18.20;;;11.30;;
54871;SDS011;43914;57.680;11.982;2023-04-24T05:21:29;17.20;;;10.90;;
54871;SDS011;43914;57.680;11.982;2023-04-24T05:23:54;17.50;;;11.00;;
54871;SDS011;43914;57.680;11.982;2023-04-24T05:26:20;18.00;;;11.70;;
54871;SDS011;43914;57.680;11.982;2023-04-24T05:28:45;18.30;;;11.70;;
54871;SDS011;43914;57.680;11.982;2023-04-24T05:31:10;19.70;;;11.40;;
54871;SDS011;43914;57.680;11.982;2023-04-24T05:33:37;17.90;;;11.00;;
54871;SDS011;43914;57.680;11.982;2023-04-24T05:36:03;16.10;;;9.90;;
54871;SDS011;43914;57.680;11.982;2023-04-24T05:38:30;18.30;;;11.00;;
54871;SDS011;43914;57.680;11.982;2023-04-24T05:40:56;17.60;;;10.70;;
54871;SDS011;43914;57.680;11.982;2023-04-24T05:43:21;16.30;;;9.90;;
54871;SDS011;43914;57.680;11.982;2023-04-24T05:45:47;20.20;;;10.40;;
54871;SDS011;43914;57.680;11.982;2023-04-24T05:48:12;16.30;;;9.80;;
54871;SDS011;43914;57.680;11.982;2023-04-24T05:50:37;17.00;;;10.70;;
54871;SDS011;43914;57.680;11.982;2023-04-24T05:53:03;16.90;;;10.90;;
54871;SDS011;43914;57.680;11.982;2023-04-24T05:55:30;17.70;;;10.50;;
54871;SDS011;43914;57.680;11.982;2023-04-24T05:57:56;16.20;;;9.30;;
54871;SDS011;43914;57.680;11.982;2023-04-24T06:00:21;19.80;;;11.40;;
54871;SDS011;43914;57.680;11.982;2023-04-24T06:02:47;20.00;;;11.10;;
54871;SDS011;43914;57.680;11.982;2023-04-24T06:05:12;15.70;;;9.80;;
54871;SDS011;43914;57.680;11.982;2023-04-24T06:07:38;16.60;;;10.00;;
54871;SDS011;43914;57.680;11.982;2023-04-24T06:10:04;19.90;;;11.10;;
54871;SDS011;43914;57.680;11.982;2023-04-24T06:12:30;19.20;;;10.90;;
54871;SDS011;43914;57.680;11.982;2023-04-24T06:14:56;17.40;;;10.10;;
54871;SDS011;43914;57.680;11.982;2023-04-24T06:17:21;18.30;;;10.00;;
54871;SDS011;43914;57.680;11.982;2023-04-24T06:19:47;15.40;;;9.40;;
54871;SDS011;43914;57.680;11.982;2023-04-24T06:22:12;17.10;;;9.50;;
54871;SDS011;43914;57.680;11.982;2023-04-24T06:24:39;15.10;;;8.80;;
54871;SDS011;43914;57.680;11.982;2023-04-24T06:27:05;17.40;;;10.20;;
54871;SDS011;43914;57.680;11.982;2023-04-24T06:29:31;18.30;;;9.90;;
54871;SDS011;43914;57.680;11.982;2023-04-24T06:31:58;17.60;;;10.50;;
54871;SDS011;43914;57.680;11.982;2023-04-24T06:34:23;16.50;;;10.10;;
54871;SDS011;43914;57.680;11.982;2023-04-24T06:36:49;19.50;;;10.90;;
54871;SDS011;43914;57.680;11.982;2023-04-24T06:39:15;16.50;;;9.80;;
54871;SDS011;43914;57.680;11.982;2023-04-24T06:41:40;16.20;;;10.30;;
54871;SDS011;43914;57.680;11.982;2023-04-24T06:44:06;16.60;;;10.40;;
54871;SDS011;43914;57.680;11.982;2023-04-24T06:46:31;17.40;;;10.60;;
54871;SDS011;43914;57.680;11.982;2023-04-24T06:48:56;15.00;;;9.30;;
54871;SDS011;43914;57.680;11.982;2023-04-24T06:51:25;15.70;;;8.60;;
54871;SDS011;43914;57.680;11.982;2023-04-24T06:53:53;15.70;;;9.00;;
54871;SDS011;43914;57.680;11.982;2023-04-24T06:56:19;16.40;;;9.70;;
54871;SDS011;43914;57.680;11.982;2023-04-24T06:58:46;14.70;;;8.40;;
54871;SDS011;43914;57.680;11.982;2023-04-24T07:01:11;15.70;;;9.00;;
54871;SDS011;43914;57.680;11.982;2023-04-24T07:03:37;14.30;;;9.10;;
54871;SDS011;43914;57.680;11.982;2023-04-24T07:06:03;18.30;;;9.50;;
54871;SDS011;43914;57.680;11.982;2023-04-24T07:08:29;19.70;;;10.30;;
54871;SDS011;43914;57.680;11.982;2023-04-24T07:10:58;15.40;;;9.00;;
54871;SDS011;43914;57.680;11.982;2023-04-24T07:13:24;16.30;;;9.50;;
54871;SDS011;43914;57.680;11.982;2023-04-24T07:15:51;16.70;;;10.20;;
54871;SDS011;43914;57.680;11.982;2023-04-24T07:18:18;17.00;;;9.40;;
54871;SDS011;43914;57.680;11.982;2023-04-24T07:20:44;15.20;;;9.40;;
54871;SDS011;43914;57.680;11.982;2023-04-24T07:23:10;14.30;;;8.10;;
54871;SDS011;43914;57.680;11.982;2023-04-24T07:25:35;13.90;;;8.50;;
54871;SDS011;43914;57.680;11.982;2023-04-24T07:28:01;18.70;;;10.30;;
54871;SDS011;43914;57.680;11.982;2023-04-24T07:30:26;14.00;;;8.40;;
54871;SDS011;43914;57.680;11.982;2023-04-24T07:32:54;16.40;;;9.80;;
54871;SDS011;43914;57.680;11.982;2023-04-24T07:35:20;18.70;;;10.70;;
54871;SDS011;43914;57.680;11.982;2023-04-24T07:37:45;15.60;;;8.30;;
54871;SDS011;43914;57.680;11.982;2023-04-24T07:40:12;17.40;;;10.10;;
54871;SDS011;43914;57.680;11.982;2023-04-24T07:42:38;15.30;;;9.40;;
54871;SDS011;43914;57.680;11.982;2023-04-24T07:45:03;14.90;;;8.80;;
54871;SDS011;43914;57.680;11.982;2023-04-24T07:47:30;17.10;;;10.00;;
54871;SDS011;43914;57.680;11.982;2023-04-24T07:49:56;14.60;;;9.90;;
54871;SDS011;43914;57.680;11.982;2023-04-24T07:52:22;16.90;;;9.60;;
54871;SDS011;43914;57.680;11.982;2023-04-24T07:54:47;18.20;;;11.80;;
54871;SDS011;43914;57.680;11.982;2023-04-24T07:57:13;16.70;;;10.90;;
54871;SDS011;43914;57.680;11.982;2023-04-24T07:59:38;19.50;;;11.10;;
54871;SDS011;43914;57.680;11.982;2023-04-24T08:02:04;17.20;;;11.10;;
54871;SDS011;43914;57.680;11.982;2023-04-24T08:04:31;19.10;;;11.70;;
54871;SDS011;43914;57.680;11.982;2023-04-24T08:06:57;20.00;;;12.30;;
54871;SDS011;43914;57.680;11.982;2023-04-24T08:09:22;19.70;;;11.70;;
54871;SDS011;43914;57.680;11.982;2023-04-24T08:11:48;14.30;;;9.20;;
54871;SDS011;43914;57.680;11.982;2023-04-24T08:14:14;16.40;;;10.20;;
54871;SDS011;43914;57.680;11.982;2023-04-24T08:16:40;15.70;;;9.30;;
54871;SDS011;43914;57.680;11.982;2023-04-24T08:19:06;16.20;;;8.60;;
54871;SDS011;43914;57.680;11.982;2023-04-24T08:21:31;14.50;;;9.20;;
54871;SDS011;43914;57.680;11.982;2023-04-24T08:23:57;15.90;;;9.00;;
54871;SDS011;43914;57.680;11.982;2023-04-24T08:26:23;16.50;;;10.00;;
54871;SDS011;43914;57.680;11.982;2023-04-24T08:28:48;15.80;;;9.30;;
54871;SDS011;43914;57.680;11.982;2023-04-24T08:31:14;16.80;;;9.90;;
54871;SDS011;43914;57.680;11.982;2023-04-24T08:33:40;14.00;;;8.70;;
54871;SDS011;43914;57.680;11.982;2023-04-24T08:36:06;14.70;;;8.90;;
54871;SDS011;43914;57.680;11.982;2023-04-24T08:38:33;16.70;;;9.70;;
54871;SDS011;43914;57.680;11.982;2023-04-24T08:40:59;15.10;;;9.10;;
54871;SDS011;43914;57.680;11.982;2023-04-24T08:43:26;16.80;;;10.20;;
54871;SDS011;43914;57.680;11.982;2023-04-24T08:45:52;17.00;;;8.60;;
54871;SDS011;43914;57.680;11.982;2023-04-24T08:48:21;14.90;;;8.10;;
54871;SDS011;43914;57.680;11.982;2023-04-24T08:50:48;14.30;;;8.90;;
54871;SDS011;43914;57.680;11.982;2023-04-24T08:53:16;14.70;;;9.20;;
54871;SDS011;43914;57.680;11.982;2023-04-24T08:55:43;14.10;;;8.20;;
54871;SDS011;43914;57.680;11.982;2023-04-24T08:58:11;15.20;;;7.10;;
54871;SDS011;43914;57.680;11.982;2023-04-24T09:00:38;13.90;;;8.60;;
54871;SDS011;43914;57.680;11.982;2023-04-24T09:03:04;12.60;;;7.00;;
54871;SDS011;43914;57.680;11.982;2023-04-24T09:05:31;13.50;;;7.50;;
54871;SDS011;43914;57.680;11.982;2023-04-24T09:07:58;11.90;;;6.60;;
54871;SDS011;43914;57.680;11.982;2023-04-24T09:10:27;12.10;;;6.80;;
54871;SDS011;43914;57.680;11.982;2023-04-24T09:12:56;11.60;;;5.80;;
54871;SDS011;43914;57.680;11.982;2023-04-24T09:15:24;13.00;;;6.40;;
54871;SDS011;43914;57.680;11.982;2023-04-24T09:17:49;12.20;;;6.20;;
54871;SDS011;43914;57.680;11.982;2023-04-24T09:20:15;13.30;;;6.40;;
54871;SDS011;43914;57.680;11.982;2023-04-24T09:22:41;11.70;;;6.20;;
54871;SDS011;43914;57.680;11.982;2023-04-24T09:25:08;10.80;;;5.80;;
54871;SDS011;43914;57.680;11.982;2023-04-24T09:27:36;10.30;;;6.10;;
54871;SDS011;43914;57.680;11.982;2023-04-24T09:30:07;10.20;;;5.40;;
54871;SDS011;43914;57.680;11.982;2023-04-24T09:32:33;10.50;;;5.40;;
54871;SDS011;43914;57.680;11.982;2023-04-24T09:35:06;13.80;;;6.60;;
54871;SDS011;43914;57.680;11.982;2023-04-24T09:37:40;12.30;;;6.70;;
54871;SDS011;43914;57.680;11.982;2023-04-24T09:42:37;12.00;;;6.50;;
54871;SDS011;43914;57.680;11.982;2023-04-24T09:45:03;13.50;;;6.30;;
54871;SDS011;43914;57.680;11.982;2023-04-24T09:47:36;12.10;;;6.60;;
54871;SDS011;43914;57.680;11.982;2023-04-24T09:50:12;12.40;;;5.70;;
54871;SDS011;43914;57.680;11.982;2023-04-24T09:53:02;11.70;;;5.90;;
54871;SDS011;43914;57.680;11.982;2023-04-24T09:55:30;10.10;;;5.70;;
54871;SDS011;43914;57.680;11.982;2023-04-24T09:57:57;14.40;;;6.90;;
54871;SDS011;43914;57.680;11.982;2023-04-24T10:00:29;12.30;;;7.30;;
54871;SDS011;43914;57.680;11.982;2023-04-24T10:02:57;12.20;;;6.60;;
54871;SDS011;43914;57.680;11.982;2023-04-24T10:05:27;11.10;;;6.10;;
54871;SDS011;43914;57.680;11.982;2023-04-24T10:08:04;12.00;;;6.40;;
54871;SDS011;43914;57.680;11.982;2023-04-24T10:10:31;9.60;;;4.70;;
54871;SDS011;43914;57.680;11.982;2023-04-24T10:12:59;11.80;;;6.00;;
54871;SDS011;43914;57.680;11.982;2023-04-24T10:15:25;10.40;;;5.80;;
54871;SDS011;43914;57.680;11.982;2023-04-24T10:17:51;11.10;;;5.50;;
54871;SDS011;43914;57.680;11.982;2023-04-24T10:20:18;11.90;;;6.90;;
54871;SDS011;43914;57.680;11.982;2023-04-24T10:22:49;12.10;;;6.60;;
54871;SDS011;43914;57.680;11.982;2023-04-24T10:25:16;12.70;;;6.30;;
54871;SDS011;43914;57.680;11.982;2023-04-24T10:27:45;10.60;;;5.90;;
54871;SDS011;43914;57.680;11.982;2023-04-24T10:30:11;10.30;;;5.50;;
54871;SDS011;43914;57.680;11.982;2023-04-24T10:32:37;11.80;;;5.90;;
54871;SDS011;43914;57.680;11.982;2023-04-24T10:35:03;11.00;;;6.10;;
54871;SDS011;43914;57.680;11.982;2023-04-24T10:37:29;10.70;;;6.20;;
54871;SDS011;43914;57.680;11.982;2023-04-24T10:40:02;12.20;;;6.10;;
54871;SDS011;43914;57.680;11.982;2023-04-24T10:42:28;10.50;;;5.50;;
54871;SDS011;43914;57.680;11.982;2023-04-24T10:44:53;11.20;;;6.20;;
54871;SDS011;43914;57.680;11.982;2023-04-24T10:47:20;10.10;;;5.90;;
54871;SDS011;43914;57.680;11.982;2023-04-24T10:49:46;10.10;;;6.00;;
54871;SDS011;43914;57.680;11.982;2023-04-24T10:52:11;11.90;;;6.40;;
54871;SDS011;43914;57.680;11.982;2023-04-24T11:00:10;10.60;;;5.40;;
54871;SDS011;43914;57.680;11.982;2023-04-24T11:02:38;11.20;;;6.00;;
54871;SDS011;43914;57.680;11.982;2023-04-24T11:05:05;9.50;;;5.40;;
54871;SDS011;43914;57.680;11.982;2023-04-24T11:10:54;9.40;;;4.40;;
54871;SDS011;43914;57.680;11.982;2023-04-24T11:13:27;10.20;;;5.00;;
54871;SDS011;43914;57.680;11.982;2023-04-24T11:19:07;8.40;;;4.30;;
54871;SDS011;43914;57.680;11.982;2023-04-24T11:26:52;8.40;;;4.30;;
54871;SDS011;43914;57.680;11.982;2023-04-24T11:29:19;9.30;;;4.50;;
54871;SDS011;43914;57.680;11.982;2023-04-24T11:31:46;10.40;;;4.50;;
54871;SDS011;43914;57.680;11.982;2023-04-24T11:34:16;8.80;;;4.30;;
54871;SDS011;43914;57.680;11.982;2023-04-24T11:36:44;8.40;;;4.30;;
54871;SDS011;43914;57.680;11.982;2023-04-24T11:39:10;9.10;;;4.80;;
54871;SDS011;43914;57.680;11.982;2023-04-24T11:41:37;9.10;;;4.30;;
54871;SDS011;43914;57.680;11.982;2023-04-24T11:44:05;8.40;;;4.30;;
54871;SDS011;43914;57.680;11.982;2023-04-24T11:46:34;10.10;;;4.60;;
54871;SDS011;43914;57.680;11.982;2023-04-24T11:49:00;8.50;;;4.40;;
54871;SDS011;43914;57.680;11.982;2023-04-24T11:51:25;8.30;;;4.30;;
54871;SDS011;43914;57.680;11.982;2023-04-24T11:53:55;8.60;;;4.60;;
54871;SDS011;43914;57.680;11.982;2023-04-24T11:56:22;8.50;;;4.30;;
54871;SDS011;43914;57.680;11.982;2023-04-24T11:58:48;10.20;;;4.50;;
54871;SDS011;43914;57.680;11.982;2023-04-24T12:01:14;8.00;;;3.80;;
54871;SDS011;43914;57.680;11.982;2023-04-24T12:03:40;8.10;;;4.00;;
54871;SDS011;43914;57.680;11.982;2023-04-24T12:06:09;7.60;;;3.40;;
54871;SDS011;43914;57.680;11.982;2023-04-24T12:08:36;8.20;;;3.70;;
54871;SDS011;43914;57.680;11.982;2023-04-24T12:11:03;8.70;;;3.80;;
54871;SDS011;43914;57.680;11.982;2023-04-24T12:13:30;7.30;;;3.70;;
54871;SDS011;43914;57.680;11.982;2023-04-24T12:15:56;8.10;;;3.40;;
54871;SDS011;43914;57.680;11.982;2023-04-24T12:18:22;9.00;;;3.50;;
54871;SDS011;43914;57.680;11.982;2023-04-24T12:20:48;7.20;;;3.00;;
54871;SDS011;43914;57.680;11.982;2023-04-24T12:23:15;9.60;;;3.20;;
54871;SDS011;43914;57.680;11.982;2023-04-24T12:25:40;7.40;;;3.40;;
54871;SDS011;43914;57.680;11.982;2023-04-24T12:30:38;7.80;;;3.10;;
54871;SDS011;43914;57.680;11.982;2023-04-24T12:33:06;7.80;;;3.30;;
54871;SDS011;43914;57.680;11.982;2023-04-24T12:35:32;7.20;;;3.00;;
54871;SDS011;43914;57.680;11.982;2023-04-24T12:38:10;7.00;;;3.20;;
54871;SDS011;43914;57.680;11.982;2023-04-24T12:40:38;7.40;;;3.20;;
54871;SDS011;43914;57.680;11.982;2023-04-24T12:43:12;6.10;;;2.40;;
54871;SDS011;43914;57.680;11.982;2023-04-24T12:45:41;6.90;;;2.70;;
54871;SDS011;43914;57.680;11.982;2023-04-24T12:48:08;6.60;;;3.30;;
54871;SDS011;43914;57.680;11.982;2023-04-24T12:50:33;6.40;;;3.10;;
54871;SDS011;43914;57.680;11.982;2023-04-24T12:52:59;6.70;;;2.70;;
54871;SDS011;43914;57.680;11.982;2023-04-24T12:55:25;8.20;;;2.80;;
54871;SDS011;43914;57.680;11.982;2023-04-24T12:57:50;8.30;;;3.10;;
54871;SDS011;43914;57.680;11.982;2023-04-24T13:00:17;9.50;;;3.00;;
54871;SDS011;43914;57.680;11.982;2023-04-24T13:02:42;7.40;;;3.40;;
54871;SDS011;43914;57.680;11.982;2023-04-24T13:05:08;7.10;;;3.10;;
54871;SDS011;43914;57.680;11.982;2023-04-24T13:07:34;7.60;;;2.90;;
54871;SDS011;43914;57.680;11.982;2023-04-24T13:10:00;6.90;;;2.90;;
54871;SDS011;43914;57.680;11.982;2023-04-24T13:12:25;6.90;;;3.10;;
54871;SDS011;43914;57.680;11.982;2023-04-24T13:14:51;8.50;;;3.10;;
54871;SDS011;43914;57.680;11.982;2023-04-24T13:17:17;7.90;;;3.30;;
54871;SDS011;43914;57.680;11.982;2023-04-24T13:19:43;8.20;;;3.40;;
54871;SDS011;43914;57.680;11.982;2023-04-24T13:22:10;6.70;;;3.00;;
54871;SDS011;43914;57.680;11.982;2023-04-24T13:24:37;7.70;;;3.20;;
54871;SDS011;43914;57.680;11.982;2023-04-24T13:27:04;7.70;;;3.50;;
54871;SDS011;43914;57.680;11.982;2023-04-24T13:29:30;6.80;;;3.10;;
54871;SDS011;43914;57.680;11.982;2023-04-24T13:31:55;8.30;;;3.70;;
54871;SDS011;43914;57.680;11.982;2023-04-24T13:34:24;9.50;;;4.00;;
54871;SDS011;43914;57.680;11.982;2023-04-24T13:36:55;9.00;;;4.10;;
54871;SDS011;43914;57.680;11.982;2023-04-24T13:39:23;7.00;;;3.60;;
54871;SDS011;43914;57.680;11.982;2023-04-24T13:41:50;7.30;;;3.80;;
54871;SDS011;43914;57.680;11.982;2023-04-24T13:44:16;9.60;;;3.70;;
54871;SDS011;43914;57.680;11.982;2023-04-24T13:46:43;7.00;;;3.50;;
54871;SDS011;43914;57.680;11.982;2023-04-24T13:49:11;9.20;;;3.50;;
54871;SDS011;43914;57.680;11.982;2023-04-24T13:51:37;8.00;;;3.60;;
54871;SDS011;43914;57.680;11.982;2023-04-24T13:54:03;7.40;;;3.40;;
54871;SDS011;43914;57.680;11.982;2023-04-24T13:56:29;9.00;;;3.30;;
54871;SDS011;43914;57.680;11.982;2023-04-24T13:58:55;7.90;;;3.30;;
54871;SDS011;43914;57.680;11.982;2023-04-24T14:01:21;8.50;;;3.40;;
54871;SDS011;43914;57.680;11.982;2023-04-24T14:03:50;8.90;;;4.20;;
54871;SDS011;43914;57.680;11.982;2023-04-24T14:06:16;7.30;;;3.40;;
54871;SDS011;43914;57.680;11.982;2023-04-24T14:08:43;8.50;;;3.70;;
54871;SDS011;43914;57.680;11.982;2023-04-24T14:11:08;8.50;;;4.10;;
54871;SDS011;43914;57.680;11.982;2023-04-24T14:13:35;8.90;;;4.90;;
54871;SDS011;43914;57.680;11.982;2023-04-24T14:16:02;11.30;;;5.60;;
54871;SDS011;43914;57.680;11.982;2023-04-24T14:18:28;11.30;;;5.40;;
54871;SDS011;43914;57.680;11.982;2023-04-24T14:20:53;11.40;;;5.50;;
54871;SDS011;43914;57.680;11.982;2023-04-24T14:23:19;10.50;;;5.20;;
54871;SDS011;43914;57.680;11.982;2023-04-24T14:25:45;10.40;;;5.50;;
54871;SDS011;43914;57.680;11.982;2023-04-24T14:28:11;9.90;;;5.10;;
54871;SDS011;43914;57.680;11.982;2023-04-24T14:30:36;8.80;;;4.60;;
54871;SDS011;43914;57.680;11.982;2023-04-24T14:33:03;11.00;;;5.50;;
54871;SDS011;43914;57.680;11.982;2023-04-24T14:35:29;11.40;;;5.50;;